createdAt,value
2019-06-27T00:01:42.035Z,20.53
2019-06-27T00:04:15.270Z,16.00
2019-06-27T00:06:48.014Z,17.63
2019-06-27T00:09:21.504Z,16.17
2019-06-27T00:11:54.687Z,17.00
2019-06-27T00:14:27.755Z,15.70
2019-06-27T00:17:00.279Z,17.43
2019-06-27T00:19:32.669Z,15.67
2019-06-27T00:22:05.505Z,15.97
2019-06-27T00:24:39.083Z,15.07
2019-06-27T00:27:11.464Z,17.23
2019-06-27T00:29:43.988Z,19.60
2019-06-27T00:32:15.894Z,14.70
2019-06-27T00:34:48.409Z,16.40
2019-06-27T00:37:20.184Z,15.27
2019-06-27T00:39:52.778Z,16.60
2019-06-27T00:42:25.214Z,16.53
2019-06-27T00:44:59.809Z,15.90
2019-06-27T00:47:32.244Z,17.60
2019-06-27T00:50:05.867Z,15.97
2019-06-27T00:52:38.014Z,15.63
2019-06-27T00:55:11.034Z,15.07
2019-06-27T00:57:43.086Z,14.93
2019-06-27T01:00:15.097Z,15.63
2019-06-27T01:02:47.326Z,15.00
2019-06-27T01:05:19.563Z,18.57
2019-06-27T01:07:51.979Z,15.13
2019-06-27T01:10:25.669Z,14.37
2019-06-27T01:12:58.699Z,14.50
2019-06-27T01:15:31.031Z,15.80
2019-06-27T01:18:03.189Z,18.10
2019-06-27T01:20:35.796Z,14.03
2019-06-27T01:23:08.655Z,18.73
2019-06-27T01:25:40.924Z,15.93
2019-06-27T01:28:13.164Z,15.20
2019-06-27T01:30:45.775Z,15.23
2019-06-27T01:33:19.139Z,14.80
2019-06-27T01:35:51.754Z,16.63
2019-06-27T01:38:24.434Z,16.00
2019-06-27T01:40:57.062Z,20.50
2019-06-27T01:43:29.454Z,19.37
2019-06-27T01:46:02.855Z,18.73
2019-06-27T01:48:35.759Z,15.93
2019-06-27T01:51:08.524Z,15.93
2019-06-27T01:53:41.343Z,15.20
2019-06-27T01:56:14.524Z,17.23
2019-06-27T01:58:46.958Z,13.77
2019-06-27T02:01:19.884Z,18.63
2019-06-27T02:03:53.450Z,17.53
2019-06-27T02:06:27.258Z,17.67
2019-06-27T02:09:00.350Z,15.70
2019-06-27T02:11:32.361Z,16.40
2019-06-27T02:14:04.535Z,17.40
2019-06-27T02:16:37.604Z,16.13
2019-06-27T02:19:09.455Z,19.00
2019-06-27T02:21:42.029Z,16.17
2019-06-27T02:24:14.541Z,20.03
2019-06-27T02:26:46.664Z,16.17
2019-06-27T02:29:19.484Z,13.90
2019-06-27T02:31:51.325Z,18.77
2019-06-27T02:34:24.154Z,12.63
2019-06-27T02:36:57.828Z,18.47
2019-06-27T02:39:31.066Z,15.23
2019-06-27T02:42:03.336Z,13.23
2019-06-27T02:44:35.530Z,15.80
2019-06-27T02:47:08.380Z,18.70
2019-06-27T02:49:41.121Z,15.00
2019-06-27T02:52:13.050Z,17.43
2019-06-27T02:54:45.666Z,18.23
2019-06-27T02:57:19.263Z,13.60
2019-06-27T02:59:52.741Z,19.37
2019-06-27T03:02:25.319Z,12.97
2019-06-27T03:04:57.715Z,14.20
2019-06-27T03:07:30.785Z,14.30
2019-06-27T03:10:03.040Z,17.43
2019-06-27T03:12:36.560Z,11.33
2019-06-27T03:15:10.314Z,16.20
2019-06-27T03:17:43.046Z,12.83
2019-06-27T03:20:15.507Z,14.07
2019-06-27T03:22:47.668Z,12.77
2019-06-27T03:25:21.314Z,14.77
2019-06-27T03:27:54.581Z,14.83
2019-06-27T03:30:27.705Z,17.07
2019-06-27T03:32:59.772Z,15.53
2019-06-27T03:35:32.379Z,16.13
2019-06-27T03:38:06.110Z,16.03
2019-06-27T03:40:39.029Z,16.20
2019-06-27T03:43:11.359Z,18.47
2019-06-27T03:45:44.078Z,11.73
2019-06-27T03:48:17.824Z,15.20
2019-06-27T03:50:50.669Z,11.27
2019-06-27T03:53:22.438Z,14.43
2019-06-27T03:55:54.579Z,16.83
2019-06-27T03:58:27.356Z,15.50
2019-06-27T04:00:59.500Z,15.90
2019-06-27T04:03:32.550Z,13.97
2019-06-27T04:06:04.858Z,13.63
2019-06-27T04:08:36.964Z,14.10
2019-06-27T04:11:09.774Z,12.33
2019-06-27T04:13:41.982Z,20.63
2019-06-27T04:16:14.470Z,15.10
2019-06-27T04:18:47.207Z,17.20
2019-06-27T04:21:20.040Z,13.63
2019-06-27T04:23:52.153Z,15.67
2019-06-27T04:26:24.919Z,12.93
2019-06-27T04:28:57.015Z,15.10
2019-06-27T04:31:29.549Z,18.30
2019-06-27T04:34:02.429Z,15.20
2019-06-27T04:36:35.238Z,11.83
2019-06-27T04:39:07.748Z,17.20
2019-06-27T04:41:40.915Z,16.60
2019-06-27T04:44:12.755Z,15.17
2019-06-27T04:46:45.810Z,13.77
2019-06-27T04:49:18.628Z,15.60
2019-06-27T04:51:50.815Z,15.90
2019-06-27T04:54:22.949Z,16.10
2019-06-27T04:56:56.399Z,16.70
2019-06-27T04:59:28.969Z,18.07
2019-06-27T05:02:01.466Z,12.43
2019-06-27T05:04:33.503Z,16.17
2019-06-27T05:07:06.688Z,11.60
2019-06-27T05:09:39.130Z,20.73
2019-06-27T05:12:11.746Z,16.57
2019-06-27T05:14:44.437Z,14.60
2019-06-27T05:17:17.000Z,13.27
2019-06-27T05:19:49.455Z,14.27
2019-06-27T05:22:21.933Z,13.90
2019-06-27T05:24:54.482Z,16.13
2019-06-27T05:27:25.349Z,17.07
2019-06-27T05:30:08.697Z,20.80
2019-06-27T05:32:31.159Z,18.83
2019-06-27T05:35:03.170Z,19.73
2019-06-27T05:37:35.568Z,19.97
2019-06-27T05:40:08.755Z,18.83
2019-06-27T05:42:41.473Z,18.57
2019-06-27T05:45:13.825Z,15.00
2019-06-27T05:47:46.137Z,22.43
2019-06-27T05:50:19.264Z,17.57
2019-06-27T05:52:51.313Z,20.23
2019-06-27T05:55:23.173Z,18.40
2019-06-27T05:57:55.651Z,23.00
2019-06-27T06:00:29.476Z,18.30
2019-06-27T06:03:01.338Z,19.20
2019-06-27T06:05:33.225Z,14.57
2019-06-27T06:08:06.033Z,14.70
2019-06-27T06:10:38.560Z,16.30
2019-06-27T06:13:11.385Z,17.40
2019-06-27T06:15:43.816Z,17.80
2019-06-27T06:18:16.584Z,16.50
2019-06-27T06:20:49.898Z,19.43
2019-06-27T06:23:22.458Z,18.83
2019-06-27T06:25:54.878Z,21.93
2019-06-27T06:28:28.139Z,14.03
2019-06-27T06:31:00.710Z,19.47
2019-06-27T06:33:32.739Z,21.50
2019-06-27T06:36:05.998Z,24.03
2019-06-27T06:38:38.215Z,18.10
2019-06-27T06:41:10.939Z,20.23
2019-06-27T06:43:43.113Z,22.10
2019-06-27T06:46:16.161Z,12.67
2019-06-27T06:48:48.898Z,20.00
2019-06-27T06:51:21.178Z,16.73
2019-06-27T06:53:53.139Z,16.10
2019-06-27T06:56:25.978Z,18.63
2019-06-27T06:58:58.914Z,22.13
2019-06-27T07:01:31.903Z,18.40
2019-06-27T07:04:04.073Z,14.27
2019-06-27T07:06:36.546Z,12.27
2019-06-27T07:09:08.923Z,20.90
2019-06-27T07:11:41.337Z,18.70
2019-06-27T07:14:14.031Z,14.00
2019-06-27T07:16:47.164Z,15.30
2019-06-27T07:19:19.145Z,14.33
2019-06-27T07:21:50.738Z,14.63
2019-06-27T07:24:23.009Z,17.00
2019-06-27T07:26:54.575Z,18.13
2019-06-27T07:29:26.826Z,14.13
2019-06-27T07:31:59.825Z,15.53
2019-06-27T07:34:32.048Z,18.00
2019-06-27T07:37:04.228Z,14.07
2019-06-27T07:39:37.068Z,15.17
2019-06-27T07:42:09.526Z,16.00
2019-06-27T07:44:41.588Z,19.03
2019-06-27T07:47:13.664Z,17.77
2019-06-27T07:49:45.557Z,15.07
2019-06-27T07:52:18.903Z,15.33
2019-06-27T07:54:50.919Z,20.10
2019-06-27T07:57:23.277Z,27.07
2019-06-27T07:59:56.574Z,19.83
2019-06-27T08:02:29.653Z,41.97
2019-06-27T08:05:01.983Z,20.67
2019-06-27T08:07:34.058Z,17.40
2019-06-27T08:10:06.566Z,22.47
2019-06-27T08:12:42.070Z,17.90
2019-06-27T08:15:12.282Z,19.47
2019-06-27T08:17:44.861Z,19.77
2019-06-27T08:20:18.190Z,20.40
2019-06-27T08:22:50.084Z,21.20
2019-06-27T08:25:22.842Z,17.20
2019-06-27T08:27:55.168Z,16.00
2019-06-27T08:30:27.423Z,17.40
2019-06-27T08:32:59.058Z,19.37
2019-06-27T08:35:33.501Z,23.23
2019-06-27T08:38:04.280Z,20.30
2019-06-27T08:40:36.993Z,18.20
2019-06-27T08:43:09.243Z,16.40
2019-06-27T08:45:42.298Z,18.63
2019-06-27T08:48:14.457Z,19.90
2019-06-27T08:50:46.587Z,20.63
2019-06-27T08:53:18.812Z,22.87
2019-06-27T08:55:50.703Z,22.80
2019-06-27T08:58:23.363Z,24.13
2019-06-27T09:00:56.112Z,22.70
2019-06-27T09:03:29.187Z,19.23
2019-06-27T09:06:01.347Z,23.70
2019-06-27T09:08:34.315Z,24.33
2019-06-27T09:11:07.712Z,22.97
2019-06-27T09:13:40.773Z,27.70
2019-06-27T09:16:13.358Z,22.20
2019-06-27T09:18:45.173Z,28.47
2019-06-27T09:21:18.264Z,23.80
2019-06-27T09:23:50.619Z,21.73
2019-06-27T09:26:23.467Z,21.90
2019-06-27T09:28:55.723Z,27.63
2019-06-27T09:31:27.608Z,19.00
2019-06-27T09:34:00.311Z,25.13
2019-06-27T09:36:32.940Z,24.47
2019-06-27T09:39:06.210Z,20.10
2019-06-27T09:41:38.640Z,19.40
2019-06-27T09:44:10.927Z,25.10
2019-06-27T09:46:43.033Z,19.90
2019-06-27T09:49:15.079Z,21.57
2019-06-27T09:51:46.984Z,22.70
2019-06-27T09:54:19.134Z,22.20
2019-06-27T09:56:51.535Z,25.30
2019-06-27T09:59:23.603Z,22.63
2019-06-27T10:01:55.960Z,22.53
2019-06-27T10:04:27.981Z,22.07
2019-06-27T10:07:00.580Z,20.70
2019-06-27T10:09:33.649Z,25.83
2019-06-27T10:12:06.210Z,22.20
2019-06-27T10:14:39.034Z,20.67
2019-06-27T10:17:11.584Z,20.97
2019-06-27T10:19:45.489Z,23.90
2019-06-27T10:22:17.814Z,18.83
2019-06-27T10:24:50.215Z,20.77
2019-06-27T10:27:22.990Z,20.87
2019-06-27T10:29:55.091Z,25.17
2019-06-27T10:32:27.185Z,25.83
2019-06-27T10:34:58.915Z,18.70
2019-06-27T10:37:29.865Z,27.00
2019-06-27T10:40:01.775Z,20.20
2019-06-27T10:42:34.201Z,22.53
2019-06-27T10:45:06.755Z,18.97
2019-06-27T10:47:39.025Z,19.40
2019-06-27T10:50:10.856Z,18.80
2019-06-27T10:52:43.376Z,18.77
2019-06-27T10:55:15.412Z,18.73
2019-06-27T10:57:47.356Z,26.90
2019-06-27T11:00:21.353Z,19.00
2019-06-27T11:02:56.060Z,20.40
2019-06-27T11:05:28.806Z,21.77
2019-06-27T11:08:01.089Z,19.83
2019-06-27T11:10:34.078Z,22.73
2019-06-27T11:13:06.532Z,17.60
2019-06-27T11:15:39.383Z,19.07
2019-06-27T11:18:11.479Z,20.23
2019-06-27T11:20:43.512Z,22.10
2019-06-27T11:23:15.976Z,18.53
2019-06-27T11:25:48.771Z,18.70
2019-06-27T11:28:20.743Z,21.30
2019-06-27T11:30:53.361Z,17.67
2019-06-27T11:33:32.829Z,22.67
2019-06-27T11:35:58.982Z,17.43
2019-06-27T11:38:31.526Z,22.63
2019-06-27T11:41:03.905Z,18.70
2019-06-27T11:43:36.733Z,23.83
2019-06-27T11:46:09.066Z,20.43
2019-06-27T11:48:41.515Z,18.83
2019-06-27T11:51:14.314Z,19.43
2019-06-27T11:53:46.275Z,19.80
2019-06-27T11:56:18.741Z,19.20
2019-06-27T11:58:51.405Z,18.70
2019-06-27T12:01:23.445Z,19.60
2019-06-27T12:03:55.420Z,18.60
2019-06-27T12:06:27.634Z,20.23
2019-06-27T12:08:59.715Z,21.30
2019-06-27T12:11:32.493Z,20.63
2019-06-27T12:14:04.814Z,18.53
2019-06-27T12:16:37.090Z,16.70
2019-06-27T12:19:09.174Z,20.20
2019-06-27T12:21:41.189Z,19.33
2019-06-27T12:24:13.352Z,20.30
2019-06-27T12:26:46.661Z,18.13
2019-06-27T12:29:18.474Z,19.80
2019-06-27T12:31:51.701Z,18.73
2019-06-27T12:34:24.412Z,17.33
2019-06-27T12:36:58.041Z,17.67
2019-06-27T12:39:30.605Z,17.33
2019-06-27T12:42:02.676Z,20.83
2019-06-27T12:44:35.257Z,17.33
2019-06-27T12:47:07.500Z,20.90
2019-06-27T12:50:00.236Z,17.77
2019-06-27T12:52:13.205Z,17.17
2019-06-27T12:54:44.529Z,19.43
2019-06-27T12:57:16.996Z,17.87
2019-06-27T12:59:48.937Z,16.90
2019-06-27T13:02:20.831Z,20.97
2019-06-27T13:04:53.550Z,23.27
2019-06-27T13:07:25.630Z,18.07
2019-06-27T13:09:57.741Z,17.20
2019-06-27T13:12:30.233Z,15.87
2019-06-27T13:15:01.814Z,21.10
2019-06-27T13:17:33.335Z,17.43
2019-06-27T13:20:04.874Z,17.03
2019-06-27T13:22:37.726Z,21.50
2019-06-27T13:25:09.568Z,29.20
2019-06-27T13:27:42.366Z,17.27
2019-06-27T13:30:14.549Z,19.73
2019-06-27T13:32:47.125Z,22.20
2019-06-27T13:35:19.069Z,17.67
2019-06-27T13:37:50.260Z,17.97
2019-06-27T13:40:25.261Z,18.90
2019-06-27T13:42:58.305Z,19.33
2019-06-27T13:45:31.174Z,17.70
2019-06-27T13:48:03.315Z,19.23
2019-06-27T13:50:35.836Z,18.13
2019-06-27T13:53:08.162Z,17.10
2019-06-27T13:55:39.595Z,21.23
2019-06-27T13:58:11.515Z,18.27
2019-06-27T14:00:46.419Z,17.90
2019-06-27T14:03:19.104Z,21.00
2019-06-27T14:05:51.071Z,17.97
2019-06-27T14:08:26.215Z,16.70
2019-06-27T14:10:57.514Z,18.20
2019-06-27T14:13:30.386Z,17.50
2019-06-27T14:16:05.985Z,20.07
2019-06-27T14:18:37.558Z,18.33
2019-06-27T14:21:10.346Z,18.60
2019-06-27T14:23:43.156Z,17.67
2019-06-27T14:26:15.295Z,17.77
2019-06-27T14:28:48.459Z,19.93
2019-06-27T14:31:20.679Z,15.40
2019-06-27T14:33:52.457Z,14.53
2019-06-27T14:36:24.785Z,19.53
2019-06-27T14:38:57.089Z,19.07
2019-06-27T14:41:29.336Z,21.33
2019-06-27T14:44:01.525Z,15.23
2019-06-27T14:46:37.162Z,20.10
2019-06-27T14:49:06.906Z,15.77
2019-06-27T14:51:39.901Z,17.53
2019-06-27T14:54:12.576Z,16.07
2019-06-27T14:56:44.712Z,16.30
2019-06-27T14:59:16.962Z,17.20
2019-06-27T15:01:49.016Z,15.00
2019-06-27T15:04:23.292Z,19.23
2019-06-27T15:06:55.466Z,16.30
2019-06-27T15:09:27.551Z,16.70
2019-06-27T15:11:59.813Z,16.07
2019-06-27T15:14:31.155Z,19.63
2019-06-27T15:17:03.039Z,15.97
2019-06-27T15:19:35.527Z,15.53
2019-06-27T15:22:07.855Z,21.33
2019-06-27T15:24:40.106Z,16.80
2019-06-27T15:27:11.759Z,15.30
2019-06-27T15:29:44.300Z,17.03
2019-06-27T15:32:16.470Z,12.27
2019-06-27T15:34:50.389Z,19.10
2019-06-27T15:37:23.589Z,16.80
2019-06-27T15:39:56.402Z,17.80
2019-06-27T15:42:28.991Z,17.63
2019-06-27T15:45:01.806Z,15.47
2019-06-27T15:47:34.591Z,15.60
2019-06-27T15:50:06.936Z,18.37
2019-06-27T15:52:39.595Z,22.20
2019-06-27T15:55:12.575Z,20.60
2019-06-27T15:57:45.327Z,20.07
2019-06-27T16:00:17.786Z,19.13
2019-06-27T16:02:49.835Z,21.93
2019-06-27T16:05:22.839Z,22.33
2019-06-27T16:07:56.066Z,18.97
2019-06-27T16:10:29.575Z,25.10
2019-06-27T16:13:02.978Z,17.97
2019-06-27T16:15:34.870Z,21.20
2019-06-27T16:18:07.645Z,17.53
2019-06-27T16:20:40.694Z,19.30
2019-06-27T16:23:12.746Z,19.40
2019-06-27T16:25:46.216Z,16.13
2019-06-27T16:28:18.465Z,17.30
2019-06-27T16:30:52.231Z,18.77
2019-06-27T16:33:25.633Z,19.00
2019-06-27T16:35:57.570Z,19.47
2019-06-27T16:38:30.636Z,19.50
2019-06-27T16:41:02.862Z,22.10
2019-06-27T16:43:35.045Z,20.67
2019-06-27T16:46:07.931Z,22.13
2019-06-27T16:48:41.065Z,21.27
2019-06-27T16:51:13.865Z,21.50
2019-06-27T16:53:46.056Z,21.80
2019-06-27T16:56:18.825Z,20.03
2019-06-27T16:58:51.151Z,19.83
2019-06-27T17:01:23.511Z,22.10
2019-06-27T17:03:56.551Z,23.80
2019-06-27T17:06:41.554Z,23.60
2019-06-27T17:09:03.271Z,23.77
2019-06-27T17:11:35.155Z,24.63
2019-06-27T17:14:07.890Z,21.53
2019-06-27T17:16:40.232Z,23.40
2019-06-27T17:19:13.455Z,22.37
2019-06-27T17:21:46.166Z,21.00
2019-06-27T17:24:19.760Z,21.23
2019-06-27T17:26:52.554Z,21.80
2019-06-27T17:29:25.035Z,25.77
2019-06-27T17:31:57.465Z,21.80
2019-06-27T17:34:30.745Z,22.77
2019-06-27T17:37:03.145Z,22.20
2019-06-27T17:39:35.930Z,22.60
2019-06-27T17:42:08.302Z,21.70
2019-06-27T17:44:41.658Z,20.37
2019-06-27T17:47:13.721Z,26.23
2019-06-27T17:49:49.103Z,22.00
2019-06-27T17:52:20.220Z,21.50
2019-06-27T17:54:52.711Z,23.23
2019-06-27T17:57:24.701Z,20.70
2019-06-27T17:59:57.124Z,20.67
2019-06-27T18:02:30.450Z,26.23
2019-06-27T18:05:03.510Z,23.00
2019-06-27T18:07:35.931Z,26.83
2019-06-27T18:10:08.870Z,23.07
2019-06-27T18:12:42.657Z,23.17
2019-06-27T18:17:47.420Z,22.03
2019-06-27T18:20:20.401Z,26.03
2019-06-27T18:22:53.196Z,27.10
2019-06-27T18:25:26.495Z,27.67
2019-06-27T18:27:58.370Z,26.00
2019-06-27T18:30:30.668Z,27.13
2019-06-27T18:33:03.907Z,28.90
2019-06-27T18:35:35.846Z,29.00
2019-06-27T18:38:08.240Z,28.93
2019-06-27T18:40:41.191Z,28.23
2019-06-27T18:43:12.742Z,29.43
2019-06-27T18:45:46.059Z,29.23
2019-06-27T18:48:19.655Z,26.00
2019-06-27T18:50:51.171Z,30.07
2019-06-27T18:53:24.422Z,27.83
2019-06-27T18:55:57.312Z,27.33
2019-06-27T18:58:30.191Z,29.17
2019-06-27T19:01:02.066Z,28.57
2019-06-27T19:03:34.595Z,27.40
2019-06-27T19:06:06.313Z,27.67
2019-06-27T19:08:39.227Z,29.20
2019-06-27T19:11:11.796Z,27.60
2019-06-27T19:13:44.186Z,27.63
2019-06-27T19:16:16.556Z,28.20
2019-06-27T19:18:55.322Z,28.37
2019-06-27T19:21:36.189Z,27.63
2019-06-27T19:24:25.445Z,27.57
2019-06-27T19:26:58.280Z,28.13
2019-06-27T19:29:31.640Z,28.00
2019-06-27T19:32:04.446Z,27.80
2019-06-27T19:34:36.761Z,26.90
2019-06-27T19:37:09.085Z,29.57
2019-06-27T19:39:41.406Z,28.97
2019-06-27T19:42:13.350Z,27.73
2019-06-27T19:44:45.806Z,28.57
2019-06-27T19:47:18.300Z,30.50
2019-06-27T19:49:49.871Z,30.93
2019-06-27T19:52:23.260Z,29.13
2019-06-27T19:54:55.533Z,28.17
2019-06-27T19:57:27.966Z,27.33
2019-06-27T20:00:00.507Z,28.77
2019-06-27T20:02:32.745Z,34.73
2019-06-27T20:05:05.271Z,29.87
2019-06-27T20:07:38.478Z,30.97
2019-06-27T20:10:11.777Z,30.40
2019-06-27T20:12:44.641Z,28.90
2019-06-27T20:15:17.455Z,29.80
2019-06-27T20:17:50.002Z,29.20
2019-06-27T20:20:22.377Z,27.67
2019-06-27T20:22:54.625Z,27.23
2019-06-27T20:25:27.165Z,27.90
2019-06-27T20:28:00.140Z,27.43
2019-06-27T20:30:33.183Z,26.43
2019-06-27T20:33:05.382Z,27.80
2019-06-27T20:35:36.901Z,28.20
2019-06-27T20:38:09.202Z,25.60
2019-06-27T20:40:41.905Z,26.10
2019-06-27T20:43:15.082Z,26.90
2019-06-27T20:45:47.878Z,24.93
2019-06-27T20:48:21.003Z,25.67
2019-06-27T20:50:53.884Z,26.70
2019-06-27T20:53:26.626Z,24.53
2019-06-27T20:55:59.190Z,26.03
2019-06-27T20:58:32.231Z,25.40
2019-06-27T21:01:04.311Z,24.03
2019-06-27T21:03:37.514Z,21.93
2019-06-27T21:06:11.961Z,21.40
2019-06-27T21:08:51.212Z,21.23
2019-06-27T21:11:18.826Z,21.20
2019-06-27T21:13:52.326Z,19.73
2019-06-27T21:16:25.476Z,22.20
2019-06-27T21:18:58.086Z,21.60
2019-06-27T21:21:30.381Z,21.23
2019-06-27T21:24:03.519Z,17.57
2019-06-27T21:26:37.160Z,17.73
2019-06-27T21:29:10.141Z,19.27
2019-06-27T21:31:43.243Z,22.13
2019-06-27T21:34:15.951Z,18.23
2019-06-27T21:36:48.051Z,18.47
2019-06-27T21:39:20.956Z,19.57
2019-06-27T21:41:53.556Z,22.90
2019-06-27T21:44:26.156Z,20.63
2019-06-27T21:46:58.902Z,19.23
2019-06-27T21:49:31.326Z,18.23
2019-06-27T21:52:03.753Z,17.73
2019-06-27T21:54:36.196Z,17.73
2019-06-27T21:57:09.760Z,17.13
2019-06-27T21:59:42.084Z,17.63
2019-06-27T22:02:14.786Z,17.93
2019-06-27T22:04:47.252Z,52.90
2019-06-27T22:07:20.073Z,93.10
2019-06-27T22:09:52.772Z,69.90
2019-06-27T22:12:25.519Z,63.97
2019-06-27T22:14:58.103Z,35.47
2019-06-27T22:17:29.631Z,22.07
2019-06-27T22:20:14.508Z,18.97
2019-06-27T22:22:36.294Z,15.53
2019-06-27T22:25:09.865Z,15.70
2019-06-27T22:27:43.273Z,16.07
2019-06-27T22:30:17.126Z,14.20
2019-06-27T22:32:49.942Z,14.43
2019-06-27T22:35:22.814Z,15.43
2019-06-27T22:38:12.281Z,16.00
2019-06-27T22:41:01.672Z,14.73
2019-06-27T22:43:51.719Z,15.50
2019-06-27T22:46:40.712Z,15.50
2019-06-27T22:49:12.186Z,14.57
2019-06-27T22:51:58.385Z,14.80
2019-06-27T22:54:31.150Z,15.40
2019-06-27T22:57:04.093Z,16.23
2019-06-27T22:59:36.610Z,14.90
2019-06-27T23:02:08.876Z,15.50
2019-06-27T23:04:41.772Z,14.77
2019-06-27T23:07:14.817Z,14.57
2019-06-27T23:09:56.396Z,16.73
2019-06-27T23:12:20.641Z,15.80
2019-06-27T23:14:53.221Z,14.90
2019-06-27T23:17:25.965Z,13.63
2019-06-27T23:19:58.812Z,16.90
2019-06-27T23:22:30.952Z,16.80
2019-06-27T23:25:03.460Z,16.40
2019-06-27T23:27:36.801Z,18.03
2019-06-27T23:30:08.450Z,17.53
2019-06-27T23:32:41.009Z,17.93
2019-06-27T23:35:12.690Z,19.37
2019-06-27T23:37:45.104Z,19.77
2019-06-27T23:40:17.366Z,19.87
2019-06-27T23:42:49.319Z,25.33
2019-06-27T23:45:21.751Z,19.30
2019-06-27T23:47:54.565Z,17.57
2019-06-27T23:50:27.665Z,18.43
2019-06-27T23:52:59.321Z,20.23
2019-06-27T23:55:32.090Z,17.73
2019-06-27T23:58:04.895Z,15.83
